PWSweather.com
Personal Weather Stations
Station Observations
TORPERJOSANG
Carretera De Villel SN , MochalesES 19332

Carretera De Villel SN MochalesES 19332

Lat: 41.09957, Lon: -2.012569

Elevation: 3215

Station Type: PSW-20

http://www.torresp.com

Latest ConditionsUpdated 8:00:04 PM GMT+01:01 Tuesday, Nov 12, 2019
Currently Today's Max Today's Min Today's Average
Temperature 42.6°F5.9°C 49.3°F9.6°C 30.4°F-0.9°C 39.4°F4.1°C
Dew Point 35.9°F2.2°C 39.5°F4.2°C 28.2°F-2.1°C 33.8°F1.0°C
Winds 3.5 mph W5.6 kmh W 10.4 mph -16.7 kmh - - 3.2 mph 5.1 kmh
Wind Gusts 4.6 mph7.4 kmh 15.0 mph24.1 kmh - -
Humidity 77% 99% 59% 81%
Pressure 29.83 in1010.2 mb 30.03 in1016.9 mb 29.83 in1010.2 mb -
Hour Temp Dew Point Humidity Winds Wind Gusts Pressure Precip Precip Rate Daily Precip Total
08:00 PM 42.6°F5.9°C 35.9°F2.2°C 77% 3.5 mph W5.6 kmh W 4.6 mph7.4 kmh 29.83 in1010.2 mb - 0.00 in0.0 mm 0.00 in0.0 mm
07:55 PM 42.6°F5.9°C 35.6°F2.0°C 76% Calm Calm 1.2 mph1.9 kmh 29.83 in1010.2 mb - 0.00 in0.0 mm 0.00 in0.0 mm
07:50 PM 42.8°F6.0°C 35.4°F1.9°C 75% Calm Calm 2.3 mph3.7 kmh 29.83 in1010.2 mb - 0.00 in0.0 mm 0.00 in0.0 mm
07:45 PM 42.8°F6.0°C 35.4°F1.9°C 75% 1.2 mph S1.9 kmh S 2.3 mph3.7 kmh 29.83 in1010.2 mb - 0.00 in0.0 mm 0.00 in0.0 mm
07:40 PM 43.0°F6.1°C 35.6°F2.0°C 75% Calm Calm 2.3 mph3.7 kmh 29.83 in1010.2 mb - 0.00 in0.0 mm 0.00 in0.0 mm
07:35 PM 43.0°F6.1°C 35.3°F1.8°C 74% 1.2 mph SW1.9 kmh SW 1.2 mph1.9 kmh 29.83 in1010.2 mb - 0.00 in0.0 mm 0.00 in0.0 mm
07:30 PM 43.2°F6.2°C 35.4°F1.9°C 74% 1.2 mph W1.9 kmh W 3.5 mph5.6 kmh 29.83 in1010.2 mb - 0.00 in0.0 mm 0.00 in0.0 mm
07:25 PM 43.2°F6.2°C 35.4°F1.9°C 74% 1.2 mph SW1.9 kmh SW 1.2 mph1.9 kmh 29.83 in1010.2 mb - 0.00 in0.0 mm 0.00 in0.0 mm
07:20 PM 43.2°F6.2°C 35.4°F1.9°C 74% 1.2 mph S1.9 kmh S 1.2 mph1.9 kmh 29.83 in1010.2 mb - 0.00 in0.0 mm 0.00 in0.0 mm
07:15 PM 43.3°F6.3°C 35.6°F2.0°C 74% 1.2 mph SW1.9 kmh SW 3.5 mph5.6 kmh 29.83 in1010.2 mb - 0.00 in0.0 mm 0.00 in0.0 mm
07:10 PM 43.4°F6.3°C 35.6°F2.0°C 74% 1.2 mph S1.9 kmh S 1.2 mph1.9 kmh 29.83 in1010.2 mb - 0.00 in0.0 mm 0.00 in0.0 mm
07:00 PM 43.5°F6.4°C 35.4°F1.9°C 73% 1.2 mph SW1.9 kmh SW 3.5 mph5.6 kmh 29.83 in1010.2 mb - 0.00 in0.0 mm 0.00 in0.0 mm
06:55 PM 43.7°F6.5°C 35.6°F2.0°C 73% 2.3 mph SW3.7 kmh SW 3.5 mph5.6 kmh 29.83 in1010.2 mb - 0.00 in0.0 mm 0.00 in0.0 mm
06:50 PM 43.7°F6.5°C 35.6°F2.0°C 73% 2.3 mph SW3.7 kmh SW 3.5 mph5.6 kmh 29.83 in1010.2 mb - 0.00 in0.0 mm 0.00 in0.0 mm
06:45 PM 43.9°F6.6°C 35.8°F2.1°C 73% 1.2 mph SW1.9 kmh SW 2.3 mph3.7 kmh 29.83 in1010.2 mb - 0.00 in0.0 mm 0.00 in0.0 mm
06:40 PM 43.9°F6.6°C 35.8°F2.1°C 73% 4.6 mph W7.4 kmh W 6.9 mph11.1 kmh 29.83 in1010.2 mb - 0.00 in0.0 mm 0.00 in0.0 mm
06:35 PM 43.9°F6.6°C 35.8°F2.1°C 73% 2.3 mph SW3.7 kmh SW 4.6 mph7.4 kmh 29.83 in1010.2 mb - 0.00 in0.0 mm 0.00 in0.0 mm
06:30 PM 44.1°F6.7°C 35.6°F2.0°C 72% 3.5 mph N5.6 kmh N 3.5 mph5.6 kmh 29.83 in1010.2 mb - 0.00 in0.0 mm 0.00 in0.0 mm
06:25 PM 44.1°F6.7°C 35.6°F2.0°C 72% 3.5 mph NW5.6 kmh NW 5.8 mph9.3 kmh 29.83 in1010.2 mb - 0.00 in0.0 mm 0.00 in0.0 mm
06:20 PM 44.2°F6.8°C 35.8°F2.1°C 72% 1.2 mph S1.9 kmh S 2.3 mph3.7 kmh 29.83 in1010.2 mb - 0.00 in0.0 mm 0.00 in0.0 mm
06:15 PM 44.4°F6.9°C 36.0°F2.2°C 72% 2.3 mph SW3.7 kmh SW 3.5 mph5.6 kmh 29.83 in1010.2 mb - 0.00 in0.0 mm 0.00 in0.0 mm
06:10 PM 44.4°F6.9°C 36.0°F2.2°C 72% 5.8 mph NW9.3 kmh NW 6.9 mph11.1 kmh 29.83 in1010.2 mb - 0.00 in0.0 mm 0.00 in0.0 mm
06:00 PM 44.6°F7.0°C 35.4°F1.9°C 70% 2.3 mph S3.7 kmh S 4.6 mph7.4 kmh 29.85 in1010.8 mb - 0.00 in0.0 mm 0.00 in0.0 mm
05:55 PM 44.6°F7.0°C 35.4°F1.9°C 70% 3.5 mph W5.6 kmh W 4.6 mph7.4 kmh 29.85 in1010.8 mb - 0.00 in0.0 mm 0.00 in0.0 mm
05:50 PM 44.6°F7.0°C 35.1°F1.7°C 69% 6.9 mph WSW11.1 kmh WSW 10.4 mph16.7 kmh 29.85 in1010.8 mb - 0.00 in0.0 mm 0.00 in0.0 mm
05:45 PM 44.8°F7.1°C 34.9°F1.6°C 68% 4.6 mph W7.4 kmh W 8.1 mph13.0 kmh 29.85 in1010.8 mb - 0.00 in0.0 mm 0.00 in0.0 mm
05:40 PM 45.0°F7.2°C 35.0°F1.7°C 68% 1.2 mph E1.9 kmh E 3.5 mph5.6 kmh 29.85 in1010.8 mb - 0.00 in0.0 mm 0.00 in0.0 mm
05:35 PM 45.1°F7.3°C 34.8°F1.6°C 67% 1.2 mph SE1.9 kmh SE 3.5 mph5.6 kmh 29.85 in1010.8 mb - 0.00 in0.0 mm 0.00 in0.0 mm
05:30 PM 45.1°F7.3°C 34.8°F1.6°C 67% 1.2 mph W1.9 kmh W 3.5 mph5.6 kmh 29.85 in1010.8 mb - 0.00 in0.0 mm 0.00 in0.0 mm
05:25 PM 45.3°F7.4°C 35.0°F1.7°C 67% 2.3 mph SE3.7 kmh SE 3.5 mph5.6 kmh 29.85 in1010.8 mb - 0.00 in0.0 mm 0.00 in0.0 mm
05:20 PM 45.5°F7.5°C 34.8°F1.6°C 66% 4.6 mph E7.4 kmh E 8.1 mph13.0 kmh 29.85 in1010.8 mb - 0.00 in0.0 mm 0.00 in0.0 mm
05:15 PM 45.5°F7.5°C 34.8°F1.6°C 66% 1.2 mph SSE1.9 kmh SSE 3.5 mph5.6 kmh 29.85 in1010.8 mb - 0.00 in0.0 mm 0.00 in0.0 mm
05:10 PM 45.7°F7.6°C 34.6°F1.4°C 65% 3.5 mph SE5.6 kmh SE 9.2 mph14.8 kmh 29.85 in1010.8 mb - 0.00 in0.0 mm 0.00 in0.0 mm
05:00 PM 46.2°F7.9°C 35.1°F1.7°C 65% 8.1 mph ENE13.0 kmh ENE 11.5 mph18.5 kmh 29.85 in1010.8 mb - 0.00 in0.0 mm 0.00 in0.0 mm
04:55 PM 46.4°F8.0°C 35.3°F1.8°C 65% 4.6 mph SSE7.4 kmh SSE 8.1 mph13.0 kmh 29.85 in1010.8 mb - 0.00 in0.0 mm 0.00 in0.0 mm
04:50 PM 46.6°F8.1°C 35.5°F1.9°C 65% 6.9 mph ENE11.1 kmh ENE 10.4 mph16.7 kmh 29.85 in1010.8 mb - 0.00 in0.0 mm 0.00 in0.0 mm
04:45 PM 47.1°F8.4°C 36.0°F2.2°C 65% 6.9 mph SE11.1 kmh SE 9.2 mph14.8 kmh 29.85 in1010.8 mb - 0.00 in0.0 mm 0.00 in0.0 mm
04:40 PM 47.3°F8.5°C 35.7°F2.1°C 64% 4.6 mph SE7.4 kmh SE 9.2 mph14.8 kmh 29.85 in1010.8 mb - 0.00 in0.0 mm 0.00 in0.0 mm
04:35 PM 47.7°F8.7°C 36.1°F2.3°C 64% 4.6 mph E7.4 kmh E 5.8 mph9.3 kmh 29.85 in1010.8 mb - 0.00 in0.0 mm 0.00 in0.0 mm
04:30 PM 47.8°F8.8°C 35.8°F2.1°C 63% 5.8 mph ENE9.3 kmh ENE 11.5 mph18.5 kmh 29.85 in1010.8 mb - 0.00 in0.0 mm 0.00 in0.0 mm
04:25 PM 48.0°F8.9°C 36.4°F2.4°C 64% 9.2 mph ENE14.8 kmh ENE 11.5 mph18.5 kmh 29.85 in1010.8 mb - 0.00 in0.0 mm 0.00 in0.0 mm
04:20 PM 47.8°F8.8°C 35.8°F2.1°C 63% 3.5 mph S5.6 kmh S 5.8 mph9.3 kmh 29.85 in1010.8 mb - 0.00 in0.0 mm 0.00 in0.0 mm
04:15 PM 47.8°F8.8°C 35.8°F2.1°C 63% 8.1 mph S13.0 kmh S 10.4 mph16.7 kmh 29.85 in1010.8 mb - 0.00 in0.0 mm 0.00 in0.0 mm
04:10 PM 48.0°F8.9°C 36.4°F2.4°C 64% 5.8 mph SW9.3 kmh SW 12.7 mph20.4 kmh 29.85 in1010.8 mb - 0.00 in0.0 mm 0.00 in0.0 mm
04:00 PM 47.5°F8.6°C 35.5°F1.9°C 63% 5.8 mph S9.3 kmh S 8.1 mph13.0 kmh 29.88 in1011.9 mb - 0.00 in0.0 mm 0.00 in0.0 mm
03:55 PM 47.7°F8.7°C 35.3°F1.8°C 62% 3.5 mph S5.6 kmh S 4.6 mph7.4 kmh 29.88 in1011.9 mb - 0.00 in0.0 mm 0.00 in0.0 mm
03:50 PM 48.2°F9.0°C 35.0°F1.7°C 60% 5.8 mph SW9.3 kmh SW 6.9 mph11.1 kmh 29.88 in1011.9 mb - 0.00 in0.0 mm 0.00 in0.0 mm
03:45 PM 48.6°F9.2°C 35.3°F1.8°C 60% 3.5 mph S5.6 kmh S 6.9 mph11.1 kmh 29.88 in1011.9 mb - 0.00 in0.0 mm 0.00 in0.0 mm
03:40 PM 48.7°F9.3°C 35.5°F1.9°C 60% 4.6 mph SE7.4 kmh SE 6.9 mph11.1 kmh 29.88 in1011.9 mb - 0.00 in0.0 mm 0.00 in0.0 mm
03:35 PM 48.7°F9.3°C 35.9°F2.2°C 61% 3.5 mph S5.6 kmh S 6.9 mph11.1 kmh 29.88 in1011.9 mb - 0.00 in0.0 mm 0.00 in0.0 mm
03:30 PM 48.4°F9.1°C 35.5°F1.9°C 61% 6.9 mph SW11.1 kmh SW 8.1 mph13.0 kmh 29.88 in1011.9 mb - 0.00 in0.0 mm 0.00 in0.0 mm
03:25 PM 48.2°F9.0°C 35.0°F1.7°C 60% 3.5 mph SE5.6 kmh SE 5.8 mph9.3 kmh 29.88 in1011.9 mb - 0.00 in0.0 mm 0.00 in0.0 mm
03:20 PM 48.6°F9.2°C 35.3°F1.8°C 60% 9.2 mph W14.8 kmh W 12.7 mph20.4 kmh 29.88 in1011.9 mb - 0.00 in0.0 mm 0.00 in0.0 mm
03:15 PM 48.7°F9.3°C 35.0°F1.7°C 59% 1.2 mph SW1.9 kmh SW 4.6 mph7.4 kmh 29.88 in1011.9 mb - 0.00 in0.0 mm 0.00 in0.0 mm
03:10 PM 49.3°F9.6°C 35.5°F1.9°C 59% 3.5 mph WSW5.6 kmh WSW 9.2 mph14.8 kmh 29.88 in1011.9 mb - 0.00 in0.0 mm 0.00 in0.0 mm
03:00 PM 49.3°F9.6°C 36.0°F2.2°C 60% 2.3 mph SE3.7 kmh SE 5.8 mph9.3 kmh 29.88 in1011.9 mb - 0.00 in0.0 mm 0.00 in0.0 mm
02:55 PM 48.9°F9.4°C 36.0°F2.2°C 61% 6.9 mph NE11.1 kmh NE 10.4 mph16.7 kmh 29.88 in1011.9 mb - 0.00 in0.0 mm 0.00 in0.0 mm
02:50 PM 48.0°F8.9°C 35.6°F2.0°C 62% 6.9 mph NE11.1 kmh NE 9.2 mph14.8 kmh 29.88 in1011.9 mb - 0.00 in0.0 mm 0.00 in0.0 mm
02:45 PM 47.5°F8.6°C 34.3°F1.3°C 60% 5.8 mph ENE9.3 kmh ENE 8.1 mph13.0 kmh 29.88 in1011.9 mb - 0.00 in0.0 mm 0.00 in0.0 mm
02:40 PM 47.5°F8.6°C 34.7°F1.5°C 61% 6.9 mph ENE11.1 kmh ENE 15.0 mph24.1 kmh 29.88 in1011.9 mb - 0.00 in0.0 mm 0.00 in0.0 mm
02:35 PM 47.3°F8.5°C 34.9°F1.6°C 62% 6.9 mph SE11.1 kmh SE 8.1 mph13.0 kmh 29.88 in1011.9 mb - 0.00 in0.0 mm 0.00 in0.0 mm
02:30 PM 47.1°F8.4°C 34.4°F1.3°C 61% 8.1 mph E13.0 kmh E 11.5 mph18.5 kmh 29.88 in1011.9 mb - 0.00 in0.0 mm 0.00 in0.0 mm
02:25 PM 47.5°F8.6°C 33.9°F1.1°C 59% 8.1 mph E13.0 kmh E 10.4 mph16.7 kmh 29.88 in1011.9 mb - 0.00 in0.0 mm 0.00 in0.0 mm
02:20 PM 48.0°F8.9°C 35.2°F1.8°C 61% 8.1 mph E13.0 kmh E 10.4 mph16.7 kmh 29.88 in1011.9 mb - 0.00 in0.0 mm 0.00 in0.0 mm
02:15 PM 48.4°F9.1°C 36.0°F2.2°C 62% 6.9 mph SSW11.1 kmh SSW 10.4 mph16.7 kmh 29.88 in1011.9 mb - 0.00 in0.0 mm 0.00 in0.0 mm
02:10 PM 48.2°F9.0°C 37.0°F2.8°C 65% 3.5 mph SE5.6 kmh SE 8.1 mph13.0 kmh 29.88 in1011.9 mb - 0.00 in0.0 mm 0.00 in0.0 mm
02:00 PM 47.5°F8.6°C 36.3°F2.4°C 65% 2.3 mph E3.7 kmh E 8.1 mph13.0 kmh 29.91 in1012.9 mb - 0.00 in0.0 mm 0.00 in0.0 mm
01:55 PM 47.3°F8.5°C 36.5°F2.5°C 66% 6.9 mph SE11.1 kmh SE 10.4 mph16.7 kmh 29.91 in1012.9 mb - 0.00 in0.0 mm 0.00 in0.0 mm
01:50 PM 47.1°F8.4°C 36.3°F2.4°C 66% 8.1 mph SE13.0 kmh SE 13.8 mph22.2 kmh 29.91 in1012.9 mb - 0.00 in0.0 mm 0.00 in0.0 mm
01:45 PM 46.7°F8.2°C 36.4°F2.4°C 67% 8.1 mph SE13.0 kmh SE 10.4 mph16.7 kmh 29.91 in1012.9 mb - 0.00 in0.0 mm 0.00 in0.0 mm
01:40 PM 46.2°F7.9°C 36.2°F2.3°C 68% 8.1 mph SE13.0 kmh SE 10.4 mph16.7 kmh 29.91 in1012.9 mb - 0.00 in0.0 mm 0.00 in0.0 mm
01:35 PM 46.2°F7.9°C 36.2°F2.3°C 68% 5.8 mph SE9.3 kmh SE 6.9 mph11.1 kmh 29.91 in1012.9 mb - 0.00 in0.0 mm 0.00 in0.0 mm
01:30 PM 46.4°F8.0°C 36.0°F2.2°C 67% 5.8 mph ESE9.3 kmh ESE 8.1 mph13.0 kmh 29.91 in1012.9 mb - 0.00 in0.0 mm 0.00 in0.0 mm
01:25 PM 47.3°F8.5°C 37.3°F2.9°C 68% 10.4 mph E16.7 kmh E 12.7 mph20.4 kmh 29.91 in1012.9 mb - 0.00 in0.0 mm 0.00 in0.0 mm
01:20 PM 47.1°F8.4°C 37.8°F3.2°C 70% 4.6 mph E7.4 kmh E 5.8 mph9.3 kmh 29.91 in1012.9 mb - 0.00 in0.0 mm 0.00 in0.0 mm
01:15 PM 46.4°F8.0°C 37.8°F3.2°C 72% 1.2 mph SW1.9 kmh SW 4.6 mph7.4 kmh 29.91 in1012.9 mb - 0.00 in0.0 mm 0.00 in0.0 mm
01:10 PM 45.5°F7.5°C 37.0°F2.8°C 72% 3.5 mph W5.6 kmh W 9.2 mph14.8 kmh 29.91 in1012.9 mb - 0.00 in0.0 mm 0.00 in0.0 mm
01:00 PM 44.6°F7.0°C 35.8°F2.1°C 71% 4.6 mph SE7.4 kmh SE 5.8 mph9.3 kmh 29.94 in1013.9 mb - 0.00 in0.0 mm 0.00 in0.0 mm
12:55 PM 45.0°F7.2°C 36.1°F2.3°C 71% 8.1 mph E13.0 kmh E 11.5 mph18.5 kmh 29.94 in1013.9 mb - 0.00 in0.0 mm 0.00 in0.0 mm
12:50 PM 45.3°F7.4°C 36.8°F2.7°C 72% 3.5 mph SE5.6 kmh SE 9.2 mph14.8 kmh 29.94 in1013.9 mb - 0.00 in0.0 mm 0.00 in0.0 mm
12:45 PM 45.3°F7.4°C 36.8°F2.7°C 72% 5.8 mph E9.3 kmh E 8.1 mph13.0 kmh 29.94 in1013.9 mb - 0.00 in0.0 mm 0.00 in0.0 mm
12:40 PM 45.3°F7.4°C 37.2°F2.9°C 73% 2.3 mph E3.7 kmh E 3.5 mph5.6 kmh 29.94 in1013.9 mb - 0.00 in0.0 mm 0.00 in0.0 mm
12:35 PM 45.1°F7.3°C 37.0°F2.8°C 73% 5.8 mph W9.3 kmh W 11.5 mph18.5 kmh 29.94 in1013.9 mb - 0.00 in0.0 mm 0.00 in0.0 mm
12:30 PM 44.8°F7.1°C 37.3°F2.9°C 75% 6.9 mph NW11.1 kmh NW 10.4 mph16.7 kmh 29.94 in1013.9 mb - 0.00 in0.0 mm 0.00 in0.0 mm
12:25 PM 44.8°F7.1°C 37.7°F3.2°C 76% 3.5 mph S5.6 kmh S 5.8 mph9.3 kmh 29.94 in1013.9 mb - 0.00 in0.0 mm 0.00 in0.0 mm
12:20 PM 44.8°F7.1°C 38.0°F3.3°C 77% 2.3 mph WNW3.7 kmh WNW 12.7 mph20.4 kmh 29.94 in1013.9 mb - 0.00 in0.0 mm 0.00 in0.0 mm
12:15 PM 44.4°F6.9°C 39.0°F3.9°C 81% 1.2 mph SE1.9 kmh SE 3.5 mph5.6 kmh 29.94 in1013.9 mb - 0.00 in0.0 mm 0.00 in0.0 mm
12:10 PM 43.7°F6.5°C 38.2°F3.4°C 81% 3.5 mph SE5.6 kmh SE 5.8 mph9.3 kmh 29.94 in1013.9 mb - 0.00 in0.0 mm 0.00 in0.0 mm
12:00 PM 43.3°F6.3°C 37.9°F3.3°C 81% 5.8 mph E9.3 kmh E 8.1 mph13.0 kmh 29.94 in1013.9 mb - 0.00 in0.0 mm 0.00 in0.0 mm
11:55 AM 43.3°F6.3°C 38.2°F3.4°C 82% 4.6 mph SE7.4 kmh SE 6.9 mph11.1 kmh 29.94 in1013.9 mb - 0.00 in0.0 mm 0.00 in0.0 mm
11:50 AM 43.0°F6.1°C 38.1°F3.4°C 83% 3.5 mph E5.6 kmh E 5.8 mph9.3 kmh 29.94 in1013.9 mb - 0.00 in0.0 mm 0.00 in0.0 mm
11:45 AM 42.1°F5.6°C 37.6°F3.1°C 84% 8.1 mph SE13.0 kmh SE 12.7 mph20.4 kmh 29.94 in1013.9 mb - 0.00 in0.0 mm 0.00 in0.0 mm
11:40 AM 41.7°F5.4°C 37.2°F2.9°C 84% 5.8 mph SSE9.3 kmh SSE 10.4 mph16.7 kmh 29.94 in1013.9 mb - 0.00 in0.0 mm 0.00 in0.0 mm
11:35 AM 41.5°F5.3°C 37.4°F3.0°C 85% 5.8 mph E9.3 kmh E 8.1 mph13.0 kmh 29.94 in1013.9 mb - 0.00 in0.0 mm 0.00 in0.0 mm
11:30 AM 41.4°F5.2°C 37.2°F2.9°C 85% 5.8 mph SE9.3 kmh SE 8.1 mph13.0 kmh 29.94 in1013.9 mb - 0.00 in0.0 mm 0.00 in0.0 mm
11:25 AM 41.4°F5.2°C 37.5°F3.1°C 86% 9.2 mph E14.8 kmh E 15.0 mph24.1 kmh 29.94 in1013.9 mb - 0.00 in0.0 mm 0.00 in0.0 mm
11:20 AM 41.5°F5.3°C 38.0°F3.3°C 87% 9.2 mph WNW14.8 kmh WNW 12.7 mph20.4 kmh 29.94 in1013.9 mb - 0.00 in0.0 mm 0.00 in0.0 mm
11:15 AM 41.4°F5.2°C 38.1°F3.4°C 88% 2.3 mph S3.7 kmh S 5.8 mph9.3 kmh 29.94 in1013.9 mb - 0.00 in0.0 mm 0.00 in0.0 mm
11:10 AM 41.4°F5.2°C 38.4°F3.6°C 89% 3.5 mph SE5.6 kmh SE 8.1 mph13.0 kmh 29.94 in1013.9 mb - 0.00 in0.0 mm 0.00 in0.0 mm
11:00 AM 41.2°F5.1°C 39.0°F3.9°C 92% 5.8 mph SE9.3 kmh SE 12.7 mph20.4 kmh 29.97 in1014.9 mb - 0.00 in0.0 mm 0.00 in0.0 mm
10:55 AM 40.8°F4.9°C 39.2°F4.0°C 94% 4.6 mph SE7.4 kmh SE 5.8 mph9.3 kmh 29.97 in1014.9 mb - 0.00 in0.0 mm 0.00 in0.0 mm
10:50 AM 40.6°F4.8°C 39.0°F3.9°C 94% 5.8 mph SSE9.3 kmh SSE 6.9 mph11.1 kmh 29.97 in1014.9 mb - 0.00 in0.0 mm 0.00 in0.0 mm
10:45 AM 40.3°F4.6°C 38.7°F3.7°C 94% 3.5 mph S5.6 kmh S 4.6 mph7.4 kmh 29.97 in1014.9 mb - 0.00 in0.0 mm 0.00 in0.0 mm
10:40 AM 40.3°F4.6°C 39.0°F3.9°C 95% 3.5 mph ESE5.6 kmh ESE 5.8 mph9.3 kmh 29.97 in1014.9 mb - 0.00 in0.0 mm 0.00 in0.0 mm
10:35 AM 40.3°F4.6°C 39.2°F4.0°C 96% 3.5 mph S5.6 kmh S 6.9 mph11.1 kmh 29.97 in1014.9 mb - 0.00 in0.0 mm 0.00 in0.0 mm
10:30 AM 40.3°F4.6°C 39.5°F4.2°C 97% 5.8 mph E9.3 kmh E 6.9 mph11.1 kmh 29.97 in1014.9 mb - 0.00 in0.0 mm 0.00 in0.0 mm
10:25 AM 39.9°F4.4°C 39.4°F4.1°C 98% 5.8 mph S9.3 kmh S 9.2 mph14.8 kmh 29.97 in1014.9 mb - 0.00 in0.0 mm 0.00 in0.0 mm
10:20 AM 39.5°F4.2°C 39.0°F3.9°C 98% 3.5 mph SSE5.6 kmh SSE 5.8 mph9.3 kmh 29.97 in1014.9 mb - 0.00 in0.0 mm 0.00 in0.0 mm
10:15 AM 38.8°F3.8°C 38.6°F3.7°C 99% 4.6 mph 7.4 kmh 5.8 mph9.3 kmh 29.97 in1014.9 mb - 0.00 in0.0 mm 0.00 in0.0 mm
10:10 AM 38.7°F3.7°C 38.4°F3.6°C 99% 3.5 mph SE5.6 kmh SE 8.1 mph13.0 kmh 29.97 in1014.9 mb - 0.00 in0.0 mm 0.00 in0.0 mm
10:00 AM 37.9°F3.3°C 37.7°F3.2°C 99% 8.1 mph NE13.0 kmh NE 10.4 mph16.7 kmh 29.97 in1014.9 mb - 0.00 in0.0 mm 0.00 in0.0 mm
09:55 AM 37.4°F3.0°C 37.1°F2.8°C 99% 3.5 mph E5.6 kmh E 4.6 mph7.4 kmh 29.97 in1014.9 mb - 0.00 in0.0 mm 0.00 in0.0 mm
09:50 AM 36.8°F2.7°C 35.6°F2.0°C 95% 3.5 mph SE5.6 kmh SE 5.8 mph9.3 kmh 29.97 in1014.9 mb - 0.00 in0.0 mm 0.00 in0.0 mm
09:45 AM 36.3°F2.4°C 35.0°F1.7°C 95% 3.5 mph E5.6 kmh E 5.8 mph9.3 kmh 29.97 in1014.9 mb - 0.00 in0.0 mm 0.00 in0.0 mm
09:40 AM 36.0°F2.2°C 34.7°F1.5°C 95% 3.5 mph NE5.6 kmh NE 5.8 mph9.3 kmh 29.97 in1014.9 mb - 0.00 in0.0 mm 0.00 in0.0 mm
09:35 AM 35.8°F2.1°C 34.5°F1.4°C 95% 2.3 mph S3.7 kmh S 5.8 mph9.3 kmh 29.97 in1014.9 mb - 0.00 in0.0 mm 0.00 in0.0 mm
09:30 AM 35.6°F2.0°C 34.3°F1.3°C 95% 3.5 mph SE5.6 kmh SE 5.8 mph9.3 kmh 29.97 in1014.9 mb - 0.00 in0.0 mm 0.00 in0.0 mm
09:25 AM 35.4°F1.9°C 34.4°F1.3°C 96% 3.5 mph E5.6 kmh E 4.6 mph7.4 kmh 29.97 in1014.9 mb - 0.00 in0.0 mm 0.00 in0.0 mm
09:20 AM 35.2°F1.8°C 33.9°F1.1°C 95% 3.5 mph E5.6 kmh E 4.6 mph7.4 kmh 29.97 in1014.9 mb - 0.00 in0.0 mm 0.00 in0.0 mm
09:15 AM 34.9°F1.6°C 33.6°F0.9°C 95% 3.5 mph S5.6 kmh S 4.6 mph7.4 kmh 29.97 in1014.9 mb - 0.00 in0.0 mm 0.00 in0.0 mm
09:10 AM 34.5°F1.4°C 33.2°F0.7°C 95% 5.8 mph ESE9.3 kmh ESE 8.1 mph13.0 kmh 29.97 in1014.9 mb - 0.00 in0.0 mm 0.00 in0.0 mm
09:00 AM 33.4°F0.8°C 32.2°F0.1°C 95% 2.3 mph WSW3.7 kmh WSW 3.5 mph5.6 kmh 29.97 in1014.9 mb - 0.00 in0.0 mm 0.00 in0.0 mm
08:55 AM 32.7°F0.4°C 31.4°F-0.3°C 95% Calm Calm 1.2 mph1.9 kmh 29.97 in1014.9 mb - 0.00 in0.0 mm 0.00 in0.0 mm
08:50 AM 32.4°F0.2°C 31.1°F-0.5°C 95% Calm Calm -- 29.97 in1014.9 mb - 0.00 in0.0 mm 0.00 in0.0 mm
08:45 AM 32.2°F0.1°C 30.9°F-0.6°C 95% Calm Calm 2.3 mph3.7 kmh 29.97 in1014.9 mb - 0.00 in0.0 mm 0.00 in0.0 mm
08:40 AM 31.8°F-0.1°C 30.6°F-0.8°C 95% Calm Calm 1.2 mph1.9 kmh 29.97 in1014.9 mb - 0.00 in0.0 mm 0.00 in0.0 mm
08:35 AM 31.6°F-0.2°C 30.4°F-0.9°C 95% Calm Calm -- 29.97 in1014.9 mb - 0.00 in0.0 mm 0.00 in0.0 mm
08:30 AM 31.4°F-0.3°C 30.2°F-1.0°C 95% Calm Calm 1.2 mph1.9 kmh 29.97 in1014.9 mb - 0.00 in0.0 mm 0.00 in0.0 mm
08:25 AM 31.3°F-0.4°C 30.0°F-1.1°C 95% 1.2 mph W1.9 kmh W 3.5 mph5.6 kmh 29.97 in1014.9 mb - 0.00 in0.0 mm 0.00 in0.0 mm
08:20 AM 31.1°F-0.5°C 29.8°F-1.2°C 95% Calm Calm 2.3 mph3.7 kmh 29.97 in1014.9 mb - 0.00 in0.0 mm 0.00 in0.0 mm
08:15 AM 30.9°F-0.6°C 29.7°F-1.3°C 95% 2.3 mph W3.7 kmh W 4.6 mph7.4 kmh 29.97 in1014.9 mb - 0.00 in0.0 mm 0.00 in0.0 mm
08:10 AM 30.7°F-0.7°C 29.5°F-1.4°C 95% Calm Calm -- 29.97 in1014.9 mb - 0.00 in0.0 mm 0.00 in0.0 mm
08:00 AM 30.6°F-0.8°C 29.0°F-1.7°C 94% 1.2 mph W1.9 kmh W 3.5 mph5.6 kmh 29.97 in1014.9 mb - 0.00 in0.0 mm 0.00 in0.0 mm
07:55 AM 30.6°F-0.8°C 29.0°F-1.7°C 94% 1.2 mph W1.9 kmh W 3.5 mph5.6 kmh 29.97 in1014.9 mb - 0.00 in0.0 mm 0.00 in0.0 mm
07:50 AM 30.4°F-0.9°C 28.9°F-1.7°C 94% Calm Calm -- 29.97 in1014.9 mb - 0.00 in0.0 mm 0.00 in0.0 mm
07:45 AM 30.4°F-0.9°C 28.9°F-1.7°C 94% Calm Calm 1.2 mph1.9 kmh 29.97 in1014.9 mb - 0.00 in0.0 mm 0.00 in0.0 mm
07:40 AM 30.4°F-0.9°C 28.9°F-1.7°C 94% 1.2 mph NW1.9 kmh NW 2.3 mph3.7 kmh 29.97 in1014.9 mb - 0.00 in0.0 mm 0.00 in0.0 mm
07:35 AM 30.4°F-0.9°C 28.9°F-1.7°C 94% 2.3 mph NW3.7 kmh NW 3.5 mph5.6 kmh 29.97 in1014.9 mb - 0.00 in0.0 mm 0.00 in0.0 mm
07:30 AM 30.6°F-0.8°C 29.0°F-1.7°C 94% 3.5 mph W5.6 kmh W 3.5 mph5.6 kmh 29.97 in1014.9 mb - 0.00 in0.0 mm 0.00 in0.0 mm
07:25 AM 30.6°F-0.8°C 29.1°F-1.6°C 94% 2.3 mph W3.7 kmh W 3.5 mph5.6 kmh 29.97 in1014.9 mb - 0.00 in0.0 mm 0.00 in0.0 mm
07:20 AM 30.7°F-0.7°C 29.2°F-1.6°C 94% 1.2 mph SW1.9 kmh SW 2.3 mph3.7 kmh 29.97 in1014.9 mb - 0.00 in0.0 mm 0.00 in0.0 mm
07:15 AM 30.7°F-0.7°C 29.2°F-1.6°C 94% 1.2 mph W1.9 kmh W 2.3 mph3.7 kmh 29.97 in1014.9 mb - 0.00 in0.0 mm 0.00 in0.0 mm
07:10 AM 30.9°F-0.6°C 29.4°F-1.4°C 94% Calm Calm 1.2 mph1.9 kmh 29.97 in1014.9 mb - 0.00 in0.0 mm 0.00 in0.0 mm
07:00 AM 30.8°F-0.7°C 29.2°F-1.6°C 94% Calm Calm 1.2 mph1.9 kmh 29.97 in1014.9 mb - 0.00 in0.0 mm 0.00 in0.0 mm
06:55 AM 30.9°F-0.6°C 29.4°F-1.4°C 94% 3.5 mph W5.6 kmh W 4.6 mph7.4 kmh 29.97 in1014.9 mb - 0.00 in0.0 mm 0.00 in0.0 mm
06:50 AM 30.9°F-0.6°C 29.4°F-1.4°C 94% 3.5 mph W5.6 kmh W 5.8 mph9.3 kmh 29.97 in1014.9 mb - 0.00 in0.0 mm 0.00 in0.0 mm
06:45 AM 30.7°F-0.7°C 29.0°F-1.7°C 93% 3.5 mph W5.6 kmh W 5.8 mph9.3 kmh 29.97 in1014.9 mb - 0.00 in0.0 mm 0.00 in0.0 mm
06:40 AM 30.6°F-0.8°C 28.8°F-1.8°C 93% 3.5 mph W5.6 kmh W 3.5 mph5.6 kmh 29.97 in1014.9 mb - 0.00 in0.0 mm 0.00 in0.0 mm
06:35 AM 30.6°F-0.8°C 28.8°F-1.8°C 93% Calm Calm 1.2 mph1.9 kmh 29.97 in1014.9 mb - 0.00 in0.0 mm 0.00 in0.0 mm
06:30 AM 30.6°F-0.8°C 28.8°F-1.8°C 93% Calm Calm -- 29.97 in1014.9 mb - 0.00 in0.0 mm 0.00 in0.0 mm
06:25 AM 30.7°F-0.7°C 29.0°F-1.7°C 93% Calm Calm 2.3 mph3.7 kmh 29.97 in1014.9 mb - 0.00 in0.0 mm 0.00 in0.0 mm
06:20 AM 30.8°F-0.7°C 28.7°F-1.8°C 92% 3.5 mph W5.6 kmh W 4.6 mph7.4 kmh 29.97 in1014.9 mb - 0.00 in0.0 mm 0.00 in0.0 mm
06:15 AM 30.9°F-0.6°C 28.9°F-1.7°C 92% 2.3 mph W3.7 kmh W 3.5 mph5.6 kmh 29.97 in1014.9 mb - 0.00 in0.0 mm 0.00 in0.0 mm
06:10 AM 31.1°F-0.5°C 29.0°F-1.7°C 92% 1.2 mph W1.9 kmh W 1.2 mph1.9 kmh 29.97 in1014.9 mb - 0.00 in0.0 mm 0.00 in0.0 mm
06:00 AM 31.3°F-0.4°C 29.2°F-1.6°C 92% 2.3 mph W3.7 kmh W 3.5 mph5.6 kmh 29.97 in1014.9 mb - 0.00 in0.0 mm 0.00 in0.0 mm
05:55 AM 31.1°F-0.5°C 29.0°F-1.7°C 92% 2.3 mph NW3.7 kmh NW 4.6 mph7.4 kmh 29.97 in1014.9 mb - 0.00 in0.0 mm 0.00 in0.0 mm
05:50 AM 30.9°F-0.6°C 28.6°F-1.9°C 91% 3.5 mph WSW5.6 kmh WSW 4.6 mph7.4 kmh 29.97 in1014.9 mb - 0.00 in0.0 mm 0.00 in0.0 mm
05:45 AM 30.9°F-0.6°C 28.6°F-1.9°C 91% 3.5 mph W5.6 kmh W 3.5 mph5.6 kmh 29.97 in1014.9 mb - 0.00 in0.0 mm 0.00 in0.0 mm
05:40 AM 30.7°F-0.7°C 28.4°F-2.0°C 91% 3.5 mph W5.6 kmh W 5.8 mph9.3 kmh 29.97 in1014.9 mb - 0.00 in0.0 mm 0.00 in0.0 mm
05:35 AM 30.7°F-0.7°C 28.2°F-2.1°C 90% 1.2 mph W1.9 kmh W 1.2 mph1.9 kmh 29.97 in1014.9 mb - 0.00 in0.0 mm 0.00 in0.0 mm
05:30 AM 30.8°F-0.7°C 28.2°F-2.1°C 90% 1.2 mph W1.9 kmh W 2.3 mph3.7 kmh 29.97 in1014.9 mb - 0.00 in0.0 mm 0.00 in0.0 mm
05:25 AM 30.9°F-0.6°C 28.3°F-2.1°C 90% Calm Calm 1.2 mph1.9 kmh 29.97 in1014.9 mb - 0.00 in0.0 mm 0.00 in0.0 mm
05:20 AM 31.1°F-0.5°C 28.5°F-1.9°C 90% 1.2 mph NNW1.9 kmh NNW 1.2 mph1.9 kmh 29.97 in1014.9 mb - 0.00 in0.0 mm 0.00 in0.0 mm
05:15 AM 31.3°F-0.4°C 28.7°F-1.8°C 90% 2.3 mph NW3.7 kmh NW 3.5 mph5.6 kmh 29.97 in1014.9 mb - 0.00 in0.0 mm 0.00 in0.0 mm
05:10 AM 31.5°F-0.3°C 28.9°F-1.7°C 90% Calm Calm -- 29.97 in1014.9 mb - 0.00 in0.0 mm 0.00 in0.0 mm
05:00 AM 32.0°F0.0°C 29.1°F-1.6°C 89% 1.2 mph W1.9 kmh W 2.3 mph3.7 kmh 29.97 in1014.9 mb - 0.00 in0.0 mm 0.00 in0.0 mm
04:55 AM 32.2°F0.1°C 29.3°F-1.5°C 89% Calm Calm 1.2 mph1.9 kmh 29.97 in1014.9 mb - 0.00 in0.0 mm 0.00 in0.0 mm
04:50 AM 32.2°F0.1°C 29.3°F-1.5°C 89% 2.3 mph W3.7 kmh W 3.5 mph5.6 kmh 29.97 in1014.9 mb - 0.00 in0.0 mm 0.00 in0.0 mm
04:45 AM 32.4°F0.2°C 29.2°F-1.6°C 88% 2.3 mph W3.7 kmh W 3.5 mph5.6 kmh 29.97 in1014.9 mb - 0.00 in0.0 mm 0.00 in0.0 mm
04:40 AM 32.5°F0.3°C 29.4°F-1.4°C 88% Calm Calm -- 29.97 in1014.9 mb - 0.00 in0.0 mm 0.00 in0.0 mm
04:35 AM 32.7°F0.4°C 29.6°F-1.3°C 88% 1.2 mph W1.9 kmh W 1.2 mph1.9 kmh 29.97 in1014.9 mb - 0.00 in0.0 mm 0.00 in0.0 mm
04:30 AM 32.9°F0.5°C 29.7°F-1.3°C 88% 1.2 mph W1.9 kmh W 1.2 mph1.9 kmh 29.97 in1014.9 mb - 0.00 in0.0 mm 0.00 in0.0 mm
04:25 AM 33.1°F0.6°C 29.9°F-1.2°C 88% Calm Calm 1.2 mph1.9 kmh 29.97 in1014.9 mb - 0.00 in0.0 mm 0.00 in0.0 mm
04:20 AM 33.3°F0.7°C 30.1°F-1.1°C 88% Calm Calm -- 29.97 in1014.9 mb - 0.00 in0.0 mm 0.00 in0.0 mm
04:15 AM 33.6°F0.9°C 30.4°F-0.9°C 88% Calm Calm 1.2 mph1.9 kmh 29.97 in1014.9 mb - 0.00 in0.0 mm 0.00 in0.0 mm
04:10 AM 33.8°F1.0°C 30.3°F-0.9°C 87% Calm Calm 1.2 mph1.9 kmh 29.97 in1014.9 mb - 0.00 in0.0 mm 0.00 in0.0 mm
04:00 AM 34.2°F1.2°C 30.7°F-0.7°C 87% 3.5 mph W5.6 kmh W 4.6 mph7.4 kmh 29.97 in1014.9 mb - 0.00 in0.0 mm 0.00 in0.0 mm
03:55 AM 34.2°F1.2°C 30.4°F-0.9°C 86% 2.3 mph W3.7 kmh W 3.5 mph5.6 kmh 29.97 in1014.9 mb - 0.00 in0.0 mm 0.00 in0.0 mm
03:50 AM 34.3°F1.3°C 30.6°F-0.8°C 86% 1.2 mph SW1.9 kmh SW 3.5 mph5.6 kmh 29.97 in1014.9 mb - 0.00 in0.0 mm 0.00 in0.0 mm
03:45 AM 34.3°F1.3°C 30.6°F-0.8°C 86% 1.2 mph W1.9 kmh W 2.3 mph3.7 kmh 29.97 in1014.9 mb - 0.00 in0.0 mm 0.00 in0.0 mm
03:40 AM 34.3°F1.3°C 30.6°F-0.8°C 86% 1.2 mph N1.9 kmh N 2.3 mph3.7 kmh 29.97 in1014.9 mb - 0.00 in0.0 mm 0.00 in0.0 mm
03:35 AM 34.5°F1.4°C 30.8°F-0.7°C 86% 1.2 mph E1.9 kmh E 3.5 mph5.6 kmh 29.97 in1014.9 mb - 0.00 in0.0 mm 0.00 in0.0 mm
03:30 AM 34.7°F1.5°C 30.9°F-0.6°C 86% Calm Calm 1.2 mph1.9 kmh 29.97 in1014.9 mb - 0.00 in0.0 mm 0.00 in0.0 mm
03:25 AM 34.9°F1.6°C 31.1°F-0.5°C 86% Calm Calm -- 29.97 in1014.9 mb - 0.00 in0.0 mm 0.00 in0.0 mm
03:20 AM 35.1°F1.7°C 31.3°F-0.4°C 86% Calm Calm -- 29.97 in1014.9 mb - 0.00 in0.0 mm 0.00 in0.0 mm
03:15 AM 35.2°F1.8°C 31.2°F-0.4°C 85% Calm Calm 1.2 mph1.9 kmh 29.97 in1014.9 mb - 0.00 in0.0 mm 0.00 in0.0 mm
03:10 AM 35.4°F1.9°C 31.4°F-0.3°C 85% 1.2 mph NW1.9 kmh NW 1.2 mph1.9 kmh 29.97 in1014.9 mb - 0.00 in0.0 mm 0.00 in0.0 mm
03:00 AM 35.8°F2.1°C 31.4°F-0.3°C 84% 1.2 mph W1.9 kmh W 3.5 mph5.6 kmh 29.97 in1014.9 mb - 0.00 in0.0 mm 0.00 in0.0 mm
02:55 AM 36.0°F2.2°C 31.6°F-0.2°C 84% 3.5 mph NW5.6 kmh NW 4.6 mph7.4 kmh 29.97 in1014.9 mb - 0.00 in0.0 mm 0.00 in0.0 mm
02:50 AM 36.1°F2.3°C 31.8°F-0.1°C 84% 1.2 mph W1.9 kmh W 3.5 mph5.6 kmh 29.97 in1014.9 mb - 0.00 in0.0 mm 0.00 in0.0 mm
02:45 AM 36.1°F2.3°C 31.8°F-0.1°C 84% Calm Calm 3.5 mph5.6 kmh 29.97 in1014.9 mb - 0.00 in0.0 mm 0.00 in0.0 mm
02:40 AM 36.3°F2.4°C 31.7°F-0.2°C 83% 2.3 mph E3.7 kmh E 5.8 mph9.3 kmh 29.97 in1014.9 mb - 0.00 in0.0 mm 0.00 in0.0 mm
02:35 AM 36.5°F2.5°C 31.8°F-0.1°C 83% 3.5 mph NE5.6 kmh NE 4.6 mph7.4 kmh 29.97 in1014.9 mb - 0.00 in0.0 mm 0.00 in0.0 mm
02:30 AM 36.5°F2.5°C 31.8°F-0.1°C 83% 2.3 mph NE3.7 kmh NE 3.5 mph5.6 kmh 29.97 in1014.9 mb - 0.00 in0.0 mm 0.00 in0.0 mm
02:25 AM 36.9°F2.7°C 32.2°F0.1°C 83% 2.3 mph E3.7 kmh E 3.5 mph5.6 kmh 29.97 in1014.9 mb - 0.00 in0.0 mm 0.00 in0.0 mm
02:20 AM 37.0°F2.8°C 32.4°F0.2°C 83% 1.2 mph E1.9 kmh E 2.3 mph3.7 kmh 29.97 in1014.9 mb - 0.00 in0.0 mm 0.00 in0.0 mm
02:15 AM 37.1°F2.8°C 32.4°F0.2°C 83% 2.3 mph NE3.7 kmh NE 3.5 mph5.6 kmh 29.97 in1014.9 mb - 0.00 in0.0 mm 0.00 in0.0 mm
02:10 AM 37.2°F2.9°C 32.5°F0.3°C 83% 1.2 mph NW1.9 kmh NW 3.5 mph5.6 kmh 29.97 in1014.9 mb - 0.00 in0.0 mm 0.00 in0.0 mm
02:00 AM 37.4°F3.0°C 33.6°F0.9°C 86% 3.5 mph S5.6 kmh S 4.6 mph7.4 kmh 30.00 in1015.9 mb - 0.00 in0.0 mm 0.00 in0.0 mm
01:55 AM 37.0°F2.8°C 32.1°F0.1°C 82% 5.8 mph NE9.3 kmh NE 8.1 mph13.0 kmh 30.00 in1015.9 mb - 0.00 in0.0 mm 0.00 in0.0 mm
01:50 AM 37.0°F2.8°C 32.1°F0.1°C 82% 2.3 mph NE3.7 kmh NE 4.6 mph7.4 kmh 30.00 in1015.9 mb - 0.00 in0.0 mm 0.00 in0.0 mm
01:45 AM 37.2°F2.9°C 32.2°F0.1°C 82% 2.3 mph SE3.7 kmh SE 3.5 mph5.6 kmh 30.00 in1015.9 mb - 0.00 in0.0 mm 0.00 in0.0 mm
01:40 AM 37.4°F3.0°C 33.6°F0.9°C 86% 1.2 mph SE1.9 kmh SE 1.2 mph1.9 kmh 30.00 in1015.9 mb - 0.00 in0.0 mm 0.00 in0.0 mm
01:35 AM 37.4°F3.0°C 33.6°F0.9°C 86% 2.3 mph SE3.7 kmh SE 3.5 mph5.6 kmh 30.00 in1015.9 mb - 0.00 in0.0 mm 0.00 in0.0 mm
01:30 AM 37.6°F3.1°C 33.8°F1.0°C 86% 3.5 mph E5.6 kmh E 4.6 mph7.4 kmh 30.00 in1015.9 mb - 0.00 in0.0 mm 0.00 in0.0 mm
01:25 AM 37.8°F3.2°C 33.9°F1.1°C 86% 1.2 mph SE1.9 kmh SE 3.5 mph5.6 kmh 30.00 in1015.9 mb - 0.00 in0.0 mm 0.00 in0.0 mm
01:20 AM 37.9°F3.3°C 34.1°F1.2°C 86% 2.3 mph SE3.7 kmh SE 3.5 mph5.6 kmh 30.00 in1015.9 mb - 0.00 in0.0 mm 0.00 in0.0 mm
01:15 AM 38.1°F3.4°C 34.3°F1.3°C 86% 2.3 mph SE3.7 kmh SE 3.5 mph5.6 kmh 30.00 in1015.9 mb - 0.00 in0.0 mm 0.00 in0.0 mm
01:10 AM 38.3°F3.5°C 34.5°F1.4°C 86% 2.3 mph S3.7 kmh S 4.6 mph7.4 kmh 30.00 in1015.9 mb - 0.00 in0.0 mm 0.00 in0.0 mm
01:00 AM 38.1°F3.4°C 34.6°F1.4°C 87% 3.5 mph NE5.6 kmh NE 4.6 mph7.4 kmh 30.00 in1015.9 mb - 0.00 in0.0 mm 0.00 in0.0 mm
12:55 AM 37.8°F3.2°C 34.2°F1.2°C 87% 3.5 mph NE5.6 kmh NE 3.5 mph5.6 kmh 30.00 in1015.9 mb - 0.00 in0.0 mm 0.00 in0.0 mm
12:50 AM 37.8°F3.2°C 34.2°F1.2°C 87% 2.3 mph ESE3.7 kmh ESE 3.5 mph5.6 kmh 30.00 in1015.9 mb - 0.00 in0.0 mm 0.00 in0.0 mm
12:45 AM 37.9°F3.3°C 34.4°F1.3°C 87% 1.2 mph E1.9 kmh E 3.5 mph5.6 kmh 30.00 in1015.9 mb - 0.00 in0.0 mm 0.00 in0.0 mm
12:40 AM 37.9°F3.3°C 34.4°F1.3°C 87% 2.3 mph E3.7 kmh E 3.5 mph5.6 kmh 30.00 in1015.9 mb - 0.00 in0.0 mm 0.00 in0.0 mm
12:35 AM 37.8°F3.2°C 34.2°F1.2°C 87% 3.5 mph NE5.6 kmh NE 5.8 mph9.3 kmh 30.00 in1015.9 mb - 0.00 in0.0 mm 0.00 in0.0 mm
12:30 AM 37.8°F3.2°C 34.2°F1.2°C 87% 2.3 mph ENE3.7 kmh ENE 3.5 mph5.6 kmh 30.00 in1015.9 mb - 0.00 in0.0 mm 0.00 in0.0 mm
12:25 AM 38.1°F3.4°C 34.6°F1.4°C 87% 3.5 mph E5.6 kmh E 4.6 mph7.4 kmh 30.00 in1015.9 mb - 0.00 in0.0 mm 0.00 in0.0 mm
12:20 AM 38.1°F3.4°C 34.9°F1.6°C 88% 1.2 mph S1.9 kmh S 3.5 mph5.6 kmh 30.00 in1015.9 mb - 0.00 in0.0 mm 0.00 in0.0 mm
12:15 AM 37.8°F3.2°C 34.5°F1.4°C 88% 3.5 mph NE5.6 kmh NE 5.8 mph9.3 kmh 30.00 in1015.9 mb - 0.00 in0.0 mm 0.00 in0.0 mm
12:10 AM 37.7°F3.2°C 34.5°F1.4°C 88% 3.5 mph NE5.6 kmh NE 5.8 mph9.3 kmh 30.00 in1015.9 mb - 0.00 in0.0 mm 0.00 in0.0 mm
12:00 AM 37.4°F3.0°C 34.5°F1.4°C 89% 3.5 mph ENE5.6 kmh ENE 5.8 mph9.3 kmh 30.03 in1016.9 mb - 0.00 in0.0 mm 0.00 in0.0 mm